createdAt,value
2022-08-17T00:03:07.088Z,78
2022-08-17T00:08:42.272Z,79
2022-08-17T00:15:23.635Z,80
2022-08-17T00:20:58.724Z,80
2022-08-17T00:26:43.742Z,80
2022-08-17T00:33:14.416Z,81
2022-08-17T00:37:43.682Z,81
2022-08-17T00:43:18.769Z,81
2022-08-17T00:53:22.630Z,81
2022-08-17T01:01:10.919Z,82
2022-08-17T01:12:20.874Z,82
2022-08-17T01:17:55.910Z,81
2022-08-17T01:23:31.085Z,81
2022-08-17T01:29:05.986Z,82
2022-08-17T01:34:42.638Z,82
2022-08-17T01:40:15.963Z,83
2022-08-17T01:46:03.471Z,83
2022-08-17T01:51:25.941Z,83
2022-08-17T01:57:01.075Z,83
2022-08-17T02:02:35.939Z,83
2022-08-17T02:08:19.802Z,84
2022-08-17T02:13:45.950Z,84
2022-08-17T02:19:21.050Z,84
2022-08-17T02:25:00.386Z,84
2022-08-17T02:30:30.997Z,84
2022-08-17T02:36:05.932Z,84
2022-08-17T02:41:40.936Z,84
2022-08-17T02:47:16.598Z,85
2022-08-17T02:53:02.036Z,85
2022-08-17T02:58:34.523Z,85
2022-08-17T03:04:01.038Z,85
2022-08-17T03:09:36.006Z,85
2022-08-17T03:15:11.539Z,85
2022-08-17T03:21:55.398Z,85
2022-08-17T03:27:27.629Z,84
2022-08-17T03:33:02.619Z,84
2022-08-17T03:38:39.254Z,85
2022-08-17T03:44:12.675Z,85
2022-08-17T03:49:47.625Z,86
2022-08-17T03:55:22.636Z,86
2022-08-17T04:00:57.829Z,86
2022-08-17T04:06:32.710Z,86
2022-08-17T04:12:07.737Z,86
2022-08-17T04:17:43.589Z,86
2022-08-17T04:23:17.979Z,86
2022-08-17T04:28:52.786Z,86
2022-08-17T04:34:27.795Z,86
2022-08-17T04:40:04.268Z,86
2022-08-17T04:45:38.818Z,87
2022-08-17T04:51:12.716Z,87
2022-08-17T04:56:47.701Z,87
2022-08-17T05:02:22.772Z,87
2022-08-17T05:07:57.749Z,87
2022-08-17T05:13:33.268Z,87
2022-08-17T05:19:09.756Z,87
2022-08-17T05:25:50.332Z,87
2022-08-17T05:31:24.890Z,87
2022-08-17T05:36:59.943Z,88
2022-08-17T05:42:35.421Z,88
2022-08-17T05:48:09.877Z,88
2022-08-17T05:53:44.942Z,89
2022-08-17T05:59:20.185Z,88
2022-08-17T06:05:10.101Z,89
2022-08-17T06:10:29.938Z,89
2022-08-17T06:16:05.077Z,89
2022-08-17T06:21:40.488Z,90
2022-08-17T06:27:15.026Z,90
2022-08-17T06:32:50.457Z,90
2022-08-17T06:38:37.084Z,90
2022-08-17T06:44:00.079Z,90
2022-08-17T06:49:35.031Z,90
2022-08-17T06:55:10.117Z,90
2022-08-17T07:00:45.075Z,90
2022-08-17T07:06:20.055Z,90
2022-08-17T07:11:55.512Z,90
2022-08-17T07:18:36.600Z,89
2022-08-17T07:24:11.659Z,89
2022-08-17T07:29:46.600Z,89
2022-08-17T07:35:22.205Z,88
2022-08-17T07:40:56.669Z,87
2022-08-17T07:46:32.139Z,85
2022-08-17T07:52:24.286Z,85
2022-08-17T07:57:41.710Z,84
2022-08-17T08:03:16.710Z,83
2022-08-17T08:08:51.699Z,82
2022-08-17T08:14:28.273Z,82
2022-08-17T08:20:01.719Z,80
2022-08-17T08:25:36.711Z,79
2022-08-17T08:31:11.710Z,77
2022-08-17T08:37:12.550Z,77
2022-08-17T08:42:21.760Z,74
2022-08-17T08:47:56.768Z,73
2022-08-17T08:53:31.747Z,73
2022-08-17T08:59:06.858Z,72
2022-08-17T09:05:12.493Z,70
2022-08-17T09:10:17.958Z,69
2022-08-17T09:15:51.811Z,68
2022-08-17T09:21:26.784Z,65
2022-08-17T09:27:01.829Z,65
2022-08-17T09:32:36.771Z,63
2022-08-17T09:38:12.351Z,62
2022-08-17T09:43:46.915Z,62
2022-08-17T09:49:25.148Z,61
2022-08-17T09:54:56.959Z,60
2022-08-17T10:00:31.878Z,60
2022-08-17T10:07:13.389Z,58
2022-08-17T10:12:48.934Z,59
2022-08-17T10:18:23.504Z,58
2022-08-17T10:23:58.506Z,58
2022-08-17T10:29:47.325Z,57
2022-08-17T10:35:08.534Z,56
2022-08-17T10:40:43.519Z,56
2022-08-17T10:46:30.466Z,55
2022-08-17T10:51:53.499Z,54
2022-08-17T10:57:28.487Z,54
2022-08-17T11:03:03.531Z,53
2022-08-17T11:08:38.550Z,53
2022-08-17T11:14:16.477Z,52
2022-08-17T11:19:48.569Z,52
2022-08-17T11:25:23.597Z,52
2022-08-17T11:32:05.609Z,52
2022-08-17T11:37:40.721Z,52
2022-08-17T11:43:15.622Z,52
2022-08-17T11:48:50.778Z,51
2022-08-17T11:55:36.587Z,51
2022-08-17T12:01:07.846Z,52
2022-08-17T12:06:42.828Z,51
2022-08-17T12:12:17.951Z,51
2022-08-17T12:17:53.367Z,52
2022-08-17T12:23:27.858Z,52
2022-08-17T12:29:05.522Z,52
2022-08-17T12:36:51.531Z,51
2022-08-17T12:42:26.517Z,52
2022-08-17T12:48:01.524Z,53
2022-08-17T12:53:37.606Z,52
2022-08-17T12:59:11.588Z,52
2022-08-17T13:04:46.527Z,51
2022-08-17T13:11:28.687Z,52
2022-08-17T13:18:10.801Z,52
2022-08-17T13:23:50.944Z,53
2022-08-17T13:29:21.620Z,52
2022-08-17T13:35:15.572Z,53
2022-08-17T13:40:30.303Z,52
2022-08-17T13:46:05.429Z,53
2022-08-17T13:51:40.414Z,53
2022-08-17T13:57:15.799Z,53
2022-08-17T14:02:50.389Z,53
2022-08-17T14:08:25.372Z,54
2022-08-17T14:14:02.738Z,53
2022-08-17T14:19:35.702Z,54
2022-08-17T14:25:10.882Z,55
2022-08-17T14:30:46.261Z,54
2022-08-17T14:36:20.549Z,55
2022-08-17T14:43:02.440Z,55
2022-08-17T14:48:37.506Z,55
2022-08-17T14:54:25.594Z,55
2022-08-17T14:59:47.522Z,57
2022-08-17T15:05:22.548Z,57
2022-08-17T15:10:57.546Z,58
2022-08-17T15:16:32.658Z,59
2022-08-17T15:22:07.534Z,60
2022-08-17T15:27:42.540Z,60
2022-08-17T15:33:17.587Z,60
2022-08-17T15:38:53.801Z,61
2022-08-17T15:44:32.343Z,61
2022-08-17T15:50:02.728Z,61
2022-08-17T15:55:37.732Z,61
2022-08-17T16:01:14.749Z,61
2022-08-17T16:07:54.693Z,62
2022-08-17T16:13:29.706Z,62
2022-08-17T16:19:04.678Z,63
2022-08-17T16:24:39.289Z,64
2022-08-17T16:30:17.388Z,64
2022-08-17T16:35:49.230Z,64
2022-08-17T16:41:24.228Z,64
2022-08-17T16:46:59.225Z,64
2022-08-17T16:52:34.199Z,64
2022-08-17T16:58:09.269Z,65
2022-08-17T17:03:44.266Z,65
2022-08-17T17:09:19.310Z,66
2022-08-17T17:14:54.229Z,66
2022-08-17T17:20:29.234Z,66
2022-08-17T17:26:04.340Z,66
2022-08-17T17:31:39.394Z,66
2022-08-17T17:37:14.309Z,66
2022-08-17T17:42:52.418Z,66
2022-08-17T17:48:24.248Z,66
2022-08-17T17:53:59.371Z,66
2022-08-17T17:59:34.327Z,66
2022-08-17T18:05:09.291Z,66
2022-08-17T18:10:44.362Z,66
2022-08-17T18:16:19.315Z,66
2022-08-17T18:21:54.428Z,66
2022-08-17T18:27:29.320Z,66
2022-08-17T18:33:04.331Z,66
2022-08-17T18:38:39.331Z,66
2022-08-17T18:44:16.628Z,67
2022-08-17T18:49:49.293Z,67
2022-08-17T18:55:24.348Z,67
2022-08-17T19:00:59.308Z,67
2022-08-17T19:06:34.378Z,67
2022-08-17T19:12:09.313Z,68
2022-08-17T19:17:44.376Z,67
2022-08-17T19:23:19.357Z,67
2022-08-17T19:30:06.964Z,68
2022-08-17T19:35:36.510Z,68
2022-08-17T19:41:12.523Z,68
2022-08-17T19:46:48.558Z,68
2022-08-17T19:52:21.540Z,68
2022-08-17T19:57:56.568Z,68
2022-08-17T20:03:31.580Z,68
2022-08-17T20:09:08.624Z,68
2022-08-17T20:14:41.694Z,69
2022-08-17T20:20:19.549Z,69
2022-08-17T20:25:51.811Z,69
2022-08-17T20:32:33.179Z,69
2022-08-17T20:38:08.233Z,69
2022-08-17T20:43:43.132Z,70
2022-08-17T20:49:18.152Z,70
2022-08-17T20:54:53.192Z,70
2022-08-17T21:00:28.242Z,70
2022-08-17T21:06:03.281Z,70
2022-08-17T21:12:03.275Z,71
2022-08-17T21:17:13.146Z,71
2022-08-17T21:22:48.774Z,71
2022-08-17T21:28:23.157Z,71
2022-08-17T21:33:58.262Z,71
2022-08-17T21:39:33.573Z,72
2022-08-17T21:45:08.241Z,72
2022-08-17T21:50:44.003Z,72
2022-08-17T21:56:18.444Z,72
2022-08-17T22:01:53.376Z,73
2022-08-17T22:08:35.325Z,73
2022-08-17T22:14:10.381Z,73
2022-08-17T22:19:45.336Z,73
2022-08-17T22:25:20.431Z,73
2022-08-17T22:30:55.376Z,74
2022-08-17T22:36:30.974Z,74
2022-08-17T22:42:05.411Z,74
2022-08-17T22:47:40.461Z,74
2022-08-17T22:53:15.453Z,74
2022-08-17T22:58:59.295Z,75
2022-08-17T23:04:25.483Z,75
2022-08-17T23:10:00.459Z,75
2022-08-17T23:15:35.483Z,75
2022-08-17T23:21:10.473Z,75
2022-08-17T23:26:45.521Z,75
2022-08-17T23:32:20.432Z,76
2022-08-17T23:37:55.476Z,76
2022-08-17T23:43:30.542Z,76
2022-08-17T23:49:05.572Z,76
2022-08-17T23:55:47.045Z,76
